createdAt,value
2022-11-06T00:01:57.929Z,72.26
2022-11-06T00:04:26.034Z,71.85
2022-11-06T00:06:52.934Z,72.82
2022-11-06T00:09:22.358Z,72.73
2022-11-06T00:11:52.873Z,73.07
2022-11-06T00:14:21.305Z,73.06
2022-11-06T00:16:50.570Z,73.68
2022-11-06T00:19:18.969Z,74.53
2022-11-06T00:21:49.431Z,75.20
2022-11-06T00:24:18.595Z,75.82
2022-11-06T00:26:53.061Z,76.27
2022-11-06T00:29:22.264Z,76.15
2022-11-06T00:31:51.724Z,76.15
2022-11-06T00:34:19.673Z,76.32
2022-11-06T00:36:47.510Z,77.12
2022-11-06T00:39:15.440Z,77.19
2022-11-06T00:41:43.274Z,76.63
2022-11-06T00:44:11.261Z,77.91
2022-11-06T00:46:39.173Z,78.62
2022-11-06T00:49:08.541Z,79.21
2022-11-06T00:51:39.687Z,78.11
2022-11-06T00:54:11.797Z,78.52
2022-11-06T00:56:40.050Z,79.15
2022-11-06T00:59:12.638Z,79.01
2022-11-06T01:01:43.204Z,79.11
2022-11-06T01:04:17.049Z,78.70
2022-11-06T01:06:47.189Z,78.67
2022-11-06T01:09:16.727Z,79.08
2022-11-06T01:12:11.673Z,79.30
2022-11-06T01:14:35.419Z,78.69
2022-11-06T01:17:03.395Z,78.87
2022-11-06T01:19:32.663Z,78.68
2022-11-06T01:22:00.692Z,79.24
2022-11-06T01:24:30.063Z,79.28
2022-11-06T01:27:24.844Z,80.56
2022-11-06T01:29:47.039Z,80.25
2022-11-06T01:32:14.996Z,79.67
2022-11-06T01:34:44.250Z,79.40
2022-11-06T01:37:14.805Z,79.15
2022-11-06T01:39:43.315Z,79.26
2022-11-06T01:42:12.254Z,78.80
2022-11-06T01:45:16.440Z,79.85
2022-11-06T01:47:44.865Z,79.41
2022-11-06T01:50:16.227Z,78.89
2022-11-06T01:52:47.578Z,79.58
2022-11-06T01:55:20.542Z,79.45
2022-11-06T01:57:49.363Z,79.61
2022-11-06T02:00:17.957Z,80.27
2022-11-06T02:02:45.999Z,80.88
2022-11-06T02:05:15.539Z,79.90
2022-11-06T02:07:44.892Z,80.11
2022-11-06T02:10:12.843Z,80.56
2022-11-06T02:12:52.987Z,80.54
2022-11-06T02:15:28.362Z,80.84
2022-11-06T02:18:16.579Z,80.52
2022-11-06T02:21:00.246Z,81.27
2022-11-06T02:23:51.673Z,81.59
2022-11-06T02:26:34.605Z,81.39
2022-11-06T02:29:07.166Z,81.78
2022-11-06T02:31:41.406Z,82.20
2022-11-06T02:34:13.451Z,82.08
2022-11-06T02:36:46.230Z,81.60
2022-11-06T02:39:20.230Z,82.15
2022-11-06T02:41:50.811Z,82.10
2022-11-06T02:44:24.232Z,81.82
2022-11-06T02:46:54.601Z,82.14
2022-11-06T02:49:27.874Z,81.99
2022-11-06T02:52:00.386Z,81.70
2022-11-06T02:54:33.069Z,82.39
2022-11-06T02:57:08.988Z,82.37
2022-11-06T02:59:44.003Z,82.10
2022-11-06T03:02:17.842Z,82.29
2022-11-06T03:04:49.598Z,81.66
2022-11-06T03:07:23.883Z,81.44
2022-11-06T03:09:51.937Z,81.30
2022-11-06T03:12:25.763Z,81.32
2022-11-06T03:15:01.032Z,80.96
2022-11-06T03:17:41.638Z,80.68
2022-11-06T03:20:20.680Z,81.19
2022-11-06T03:22:53.344Z,81.17
2022-11-06T03:25:24.929Z,81.44
2022-11-06T03:27:58.730Z,80.62
2022-11-06T03:30:28.465Z,80.66
2022-11-06T03:33:00.284Z,80.20
2022-11-06T03:35:33.670Z,80.24
2022-11-06T03:38:08.393Z,80.88
2022-11-06T03:40:43.839Z,80.87
2022-11-06T03:43:15.731Z,80.37
2022-11-06T03:45:48.090Z,80.43
2022-11-06T03:48:21.878Z,80.93
2022-11-06T03:50:58.700Z,81.03
2022-11-06T03:53:30.670Z,81.12
2022-11-06T03:56:03.969Z,80.53
2022-11-06T03:58:38.687Z,80.20
2022-11-06T04:01:11.943Z,80.05
2022-11-06T04:03:45.047Z,80.42
2022-11-06T04:06:18.607Z,80.98
2022-11-06T04:09:07.214Z,80.54
2022-11-06T04:11:54.952Z,80.31
2022-11-06T04:14:26.128Z,80.02
2022-11-06T04:16:59.324Z,79.82
2022-11-06T04:19:27.391Z,80.17
2022-11-06T04:22:08.175Z,80.13
2022-11-06T04:25:06.458Z,80.27
2022-11-06T04:27:46.400Z,80.08
2022-11-06T04:30:17.815Z,80.65
2022-11-06T04:33:01.172Z,80.64
2022-11-06T04:35:38.538Z,79.78
2022-11-06T04:38:11.264Z,79.52
2022-11-06T04:40:48.507Z,80.25
2022-11-06T04:43:23.832Z,80.48
2022-11-06T04:45:56.308Z,80.83
2022-11-06T04:48:26.669Z,80.60
2022-11-06T04:51:07.074Z,80.30
2022-11-06T04:53:36.305Z,79.89
2022-11-06T04:56:11.955Z,80.25
2022-11-06T04:58:40.092Z,80.12
2022-11-06T05:01:08.121Z,79.92
2022-11-06T05:03:38.358Z,79.90
2022-11-06T05:06:06.861Z,80.12
2022-11-06T05:08:34.720Z,80.42
2022-11-06T05:11:02.710Z,80.82
2022-11-06T05:13:30.663Z,80.70
2022-11-06T05:15:59.500Z,80.85
2022-11-06T05:18:28.851Z,80.46
2022-11-06T05:21:14.557Z,80.67
2022-11-06T05:23:43.040Z,79.98
2022-11-06T05:26:11.058Z,79.92
2022-11-06T05:28:39.087Z,79.46
2022-11-06T05:31:06.999Z,79.61
2022-11-06T05:33:34.891Z,79.28
2022-11-06T05:36:05.351Z,79.93
2022-11-06T05:38:33.921Z,79.62
2022-11-06T05:41:02.236Z,79.56
2022-11-06T05:43:30.369Z,79.17
2022-11-06T05:46:00.447Z,79.91
2022-11-06T05:48:29.501Z,79.57
2022-11-06T05:51:01.432Z,79.22
2022-11-06T05:53:30.906Z,79.78
2022-11-06T05:55:59.052Z,79.11
2022-11-06T05:58:27.590Z,78.72
2022-11-06T06:00:56.272Z,78.90
2022-11-06T06:03:24.714Z,78.71
2022-11-06T06:05:52.710Z,79.11
2022-11-06T06:08:20.851Z,79.55
2022-11-06T06:10:50.286Z,79.53
2022-11-06T06:13:18.299Z,79.63
2022-11-06T06:15:46.335Z,79.72
2022-11-06T06:18:15.151Z,80.22
2022-11-06T06:20:43.531Z,79.81
2022-11-06T06:23:12.137Z,79.50
2022-11-06T06:25:40.031Z,78.70
2022-11-06T06:28:09.660Z,78.20
2022-11-06T06:30:38.889Z,78.25
2022-11-06T06:33:07.541Z,78.57
2022-11-06T06:35:35.980Z,78.79
2022-11-06T06:38:04.016Z,78.52
2022-11-06T06:40:32.011Z,79.25
2022-11-06T06:42:59.909Z,78.60
2022-11-06T06:45:29.603Z,78.96
2022-11-06T06:48:03.096Z,79.03
2022-11-06T06:50:31.032Z,79.70
2022-11-06T06:53:00.397Z,79.65
2022-11-06T06:55:29.563Z,79.10
2022-11-06T06:57:58.966Z,78.63
2022-11-06T07:00:27.520Z,78.45
2022-11-06T07:02:57.111Z,77.63
2022-11-06T07:05:25.539Z,77.87
2022-11-06T07:07:53.589Z,78.11
2022-11-06T07:10:21.750Z,78.39
2022-11-06T07:12:49.819Z,78.72
2022-11-06T07:15:17.910Z,78.29
2022-11-06T07:17:46.625Z,78.10
2022-11-06T07:20:16.033Z,78.08
2022-11-06T07:22:44.710Z,78.15
2022-11-06T07:25:12.759Z,77.94
2022-11-06T07:27:41.512Z,77.46
2022-11-06T07:30:10.883Z,77.46
2022-11-06T07:32:38.856Z,77.63
2022-11-06T07:35:07.914Z,77.90
2022-11-06T07:37:37.868Z,78.08
2022-11-06T07:40:07.150Z,77.69
2022-11-06T07:42:38.266Z,77.52
2022-11-06T07:45:09.183Z,77.00
2022-11-06T07:47:36.837Z,76.31
2022-11-06T07:50:05.244Z,77.41
2022-11-06T07:52:33.751Z,77.89
2022-11-06T07:55:03.322Z,78.47
2022-11-06T07:57:31.227Z,78.71
2022-11-06T07:59:59.091Z,79.33
2022-11-06T08:02:27.128Z,78.94
2022-11-06T08:04:59.624Z,79.57
2022-11-06T08:07:41.158Z,79.37
2022-11-06T08:10:11.763Z,80.18
2022-11-06T08:12:44.590Z,81.11
2022-11-06T08:15:13.903Z,81.12
2022-11-06T08:17:46.519Z,80.44
2022-11-06T08:20:21.478Z,80.05
2022-11-06T08:22:49.391Z,79.96
2022-11-06T08:25:18.662Z,80.28
2022-11-06T08:27:46.999Z,80.76
2022-11-06T08:30:14.771Z,80.67
2022-11-06T08:32:42.582Z,80.00
2022-11-06T08:35:10.614Z,79.81
2022-11-06T08:37:38.666Z,80.60
2022-11-06T08:40:06.977Z,80.67
2022-11-06T08:42:36.482Z,80.76
2022-11-06T08:45:04.965Z,80.48
2022-11-06T08:47:32.902Z,80.16
2022-11-06T08:50:00.857Z,80.04
2022-11-06T08:52:33.745Z,79.80
2022-11-06T08:55:02.038Z,79.58
2022-11-06T08:57:30.420Z,78.74
2022-11-06T08:59:59.635Z,79.10
2022-11-06T09:02:31.884Z,79.21
2022-11-06T09:05:07.246Z,79.28
2022-11-06T09:07:44.875Z,79.12
2022-11-06T09:10:24.216Z,78.55
2022-11-06T09:12:52.648Z,78.10
2022-11-06T09:15:22.027Z,77.77
2022-11-06T09:17:50.423Z,78.04
2022-11-06T09:20:19.190Z,77.96
2022-11-06T09:22:47.002Z,77.84
2022-11-06T09:25:15.316Z,77.71
2022-11-06T09:27:43.842Z,77.60
2022-11-06T09:30:13.052Z,77.13
2022-11-06T09:32:46.129Z,76.24
2022-11-06T09:35:14.275Z,75.90
2022-11-06T09:37:42.219Z,75.79
2022-11-06T09:40:17.431Z,75.88
2022-11-06T09:42:51.573Z,76.16
2022-11-06T09:45:25.992Z,76.37
2022-11-06T09:47:58.400Z,76.90
2022-11-06T09:50:28.661Z,76.94
2022-11-06T09:53:10.968Z,75.94
2022-11-06T09:55:44.718Z,75.80
2022-11-06T09:58:20.451Z,75.94
2022-11-06T10:00:49.935Z,75.47
2022-11-06T10:03:20.623Z,75.73
2022-11-06T10:05:48.710Z,75.72
2022-11-06T10:08:20.144Z,75.24
2022-11-06T10:10:51.373Z,74.65
2022-11-06T10:13:23.857Z,74.89
2022-11-06T10:15:54.857Z,75.56
2022-11-06T10:18:28.747Z,74.93
2022-11-06T10:21:04.286Z,75.07
2022-11-06T10:23:34.016Z,75.11
2022-11-06T10:26:06.523Z,74.91
2022-11-06T10:28:57.059Z,74.85
2022-11-06T10:31:31.805Z,74.79
2022-11-06T10:34:02.618Z,75.64
2022-11-06T10:36:32.722Z,76.00
2022-11-06T10:39:01.437Z,75.84
2022-11-06T10:41:34.987Z,75.24
2022-11-06T10:44:05.373Z,75.00
2022-11-06T10:46:36.613Z,74.74
2022-11-06T10:49:11.724Z,74.29
2022-11-06T10:51:52.112Z,75.09
2022-11-06T10:54:27.382Z,74.44
2022-11-06T10:57:02.240Z,74.05
2022-11-06T10:59:30.270Z,73.99
2022-11-06T11:01:58.067Z,73.82
2022-11-06T11:04:27.181Z,73.54
2022-11-06T11:06:54.857Z,73.16
2022-11-06T11:09:29.842Z,73.18
2022-11-06T11:11:57.785Z,72.86
2022-11-06T11:14:27.188Z,72.84
2022-11-06T11:16:55.781Z,73.04
2022-11-06T11:19:25.944Z,73.69
2022-11-06T11:21:56.714Z,73.74
2022-11-06T11:24:24.938Z,73.79
2022-11-06T11:26:55.768Z,74.95
2022-11-06T11:29:31.727Z,75.98
2022-11-06T11:32:04.429Z,77.03
2022-11-06T11:34:37.627Z,77.11
2022-11-06T11:37:10.107Z,77.69
2022-11-06T11:39:47.853Z,77.79
2022-11-06T11:42:24.359Z,78.23
2022-11-06T11:45:12.529Z,78.17
2022-11-06T11:47:41.396Z,77.89
2022-11-06T11:50:19.244Z,78.24
2022-11-06T11:52:49.403Z,78.35
2022-11-06T11:55:17.653Z,78.79
2022-11-06T11:57:46.760Z,78.60
2022-11-06T12:00:17.455Z,78.57
2022-11-06T12:02:47.576Z,77.97
2022-11-06T12:05:17.222Z,77.58
2022-11-06T12:07:48.660Z,77.40
2022-11-06T12:10:22.939Z,76.97
2022-11-06T12:12:56.622Z,77.07
2022-11-06T12:15:34.396Z,76.86
2022-11-06T12:18:18.132Z,77.01
2022-11-06T12:21:11.147Z,76.43
2022-11-06T12:23:50.019Z,76.19
2022-11-06T12:26:35.693Z,75.84
2022-11-06T12:29:12.091Z,75.94
2022-11-06T12:31:42.472Z,75.59
2022-11-06T12:34:17.495Z,76.30
2022-11-06T12:36:47.383Z,76.54
2022-11-06T12:39:17.570Z,76.67
2022-11-06T12:41:48.183Z,76.11
2022-11-06T12:44:17.274Z,75.60
2022-11-06T12:46:49.273Z,75.10
2022-11-06T12:49:34.332Z,75.20
2022-11-06T12:52:09.019Z,74.51
2022-11-06T12:54:43.441Z,74.25
2022-11-06T12:57:19.250Z,74.29
2022-11-06T12:59:54.297Z,74.17
2022-11-06T13:02:31.044Z,73.63
2022-11-06T13:05:02.783Z,73.38
2022-11-06T13:07:52.288Z,72.95
2022-11-06T13:10:41.255Z,72.34
2022-11-06T13:13:21.525Z,71.79
2022-11-06T13:15:58.301Z,71.18
2022-11-06T13:18:40.503Z,70.45
2022-11-06T13:21:16.361Z,70.68
2022-11-06T13:23:45.263Z,70.11
2022-11-06T13:26:17.264Z,69.69
2022-11-06T13:28:49.799Z,69.26
2022-11-06T13:31:19.160Z,69.49
2022-11-06T13:33:49.231Z,69.88
2022-11-06T13:36:17.226Z,69.92
2022-11-06T13:38:48.515Z,69.33
2022-11-06T13:41:19.939Z,69.16
2022-11-06T13:43:52.107Z,68.76
2022-11-06T13:46:26.158Z,69.22
2022-11-06T13:49:00.509Z,69.49
2022-11-06T13:51:34.676Z,69.17
2022-11-06T13:54:12.353Z,69.01
2022-11-06T13:56:54.699Z,68.93
2022-11-06T13:59:52.903Z,68.66
2022-11-06T14:02:40.283Z,68.02
2022-11-06T14:05:41.817Z,67.54
2022-11-06T14:08:18.779Z,67.77
2022-11-06T14:10:58.415Z,67.39
2022-11-06T14:13:30.760Z,67.97
2022-11-06T14:16:03.053Z,67.65
2022-11-06T14:18:30.827Z,67.09
2022-11-06T14:21:17.424Z,67.28
2022-11-06T14:23:53.961Z,67.56
2022-11-06T14:26:36.679Z,66.91
2022-11-06T14:29:19.411Z,67.01
2022-11-06T14:32:01.068Z,66.66
2022-11-06T14:34:29.947Z,67.02
2022-11-06T14:36:57.794Z,67.49
2022-11-06T14:39:40.506Z,67.06
2022-11-06T14:42:09.849Z,67.54
2022-11-06T14:44:54.136Z,68.05
2022-11-06T14:47:29.930Z,68.14
2022-11-06T14:50:13.953Z,67.96
2022-11-06T14:52:51.301Z,68.54
2022-11-06T14:55:45.212Z,68.23
2022-11-06T14:58:26.235Z,68.60
2022-11-06T15:01:07.338Z,68.74
2022-11-06T15:03:38.087Z,68.59
2022-11-06T15:06:08.219Z,68.63
2022-11-06T15:09:09.227Z,68.46
2022-11-06T15:11:52.040Z,67.93
2022-11-06T15:14:38.260Z,68.27
2022-11-06T15:17:11.491Z,67.67
2022-11-06T15:19:42.065Z,67.93
2022-11-06T15:22:17.904Z,67.77
2022-11-06T15:24:50.298Z,69.03
2022-11-06T15:27:19.878Z,69.33
2022-11-06T15:29:50.108Z,69.33
2022-11-06T15:32:21.914Z,68.83
2022-11-06T15:34:58.952Z,69.08
2022-11-06T15:37:36.851Z,70.62
2022-11-06T15:40:13.443Z,70.60
2022-11-06T15:42:49.462Z,71.29
2022-11-06T15:45:27.119Z,71.39
2022-11-06T15:48:10.916Z,71.22
2022-11-06T15:50:44.579Z,71.42
2022-11-06T15:53:20.944Z,71.71
2022-11-06T15:55:50.978Z,72.09
2022-11-06T15:58:30.416Z,72.12
2022-11-06T16:00:59.464Z,72.44
2022-11-06T16:03:30.466Z,72.40
2022-11-06T16:05:59.622Z,73.07
2022-11-06T16:08:29.504Z,72.59
2022-11-06T16:11:01.237Z,72.25
2022-11-06T16:13:29.304Z,72.34
2022-11-06T16:15:58.917Z,72.70
2022-11-06T16:18:30.682Z,73.45
2022-11-06T16:21:02.019Z,73.41
2022-11-06T16:23:38.644Z,73.65
2022-11-06T16:26:17.724Z,73.75
2022-11-06T16:29:04.254Z,74.32
2022-11-06T16:31:37.545Z,73.51
2022-11-06T16:34:10.364Z,73.98
2022-11-06T16:36:57.393Z,73.64
2022-11-06T16:39:56.968Z,74.25
2022-11-06T16:42:27.026Z,74.87
2022-11-06T16:45:02.285Z,74.88
2022-11-06T16:47:30.536Z,75.01
2022-11-06T16:50:01.906Z,75.46
2022-11-06T16:52:31.064Z,76.65
2022-11-06T16:55:00.876Z,76.29
2022-11-06T16:57:29.814Z,76.29
2022-11-06T16:59:59.384Z,76.38
2022-11-06T17:02:29.284Z,76.01
2022-11-06T17:05:13.481Z,75.37
2022-11-06T17:07:41.836Z,75.49
2022-11-06T17:10:26.020Z,75.86
2022-11-06T17:12:58.450Z,75.94
2022-11-06T17:15:30.153Z,74.84
2022-11-06T17:18:01.532Z,73.91
2022-11-06T17:20:47.036Z,72.48
2022-11-06T17:23:23.152Z,73.18
2022-11-06T17:25:58.886Z,72.93
2022-11-06T17:28:31.444Z,72.89
2022-11-06T17:31:07.759Z,72.84
2022-11-06T17:33:35.586Z,72.51
2022-11-06T17:36:04.850Z,72.56
2022-11-06T17:38:32.987Z,72.63
2022-11-06T17:41:00.888Z,72.45
2022-11-06T17:43:28.654Z,72.37
2022-11-06T17:45:56.745Z,72.20
2022-11-06T17:48:24.418Z,71.92
2022-11-06T17:51:09.818Z,71.98
2022-11-06T17:53:39.084Z,72.39
2022-11-06T17:56:07.898Z,72.38
2022-11-06T17:58:42.161Z,72.87
2022-11-06T18:01:17.022Z,72.75
2022-11-06T18:03:48.218Z,72.73
2022-11-06T18:06:25.118Z,72.67
2022-11-06T18:09:03.746Z,73.51
2022-11-06T18:11:43.142Z,73.07
2022-11-06T18:14:17.280Z,73.29
2022-11-06T18:16:56.955Z,73.80
2022-11-06T18:19:33.709Z,74.54
2022-11-06T18:22:06.489Z,74.40
2022-11-06T18:24:37.386Z,74.47
2022-11-06T18:27:05.123Z,74.01
2022-11-06T18:29:32.948Z,74.30
2022-11-06T18:32:00.678Z,74.90
2022-11-06T18:34:28.808Z,75.54
2022-11-06T18:36:56.811Z,75.73
2022-11-06T18:39:24.941Z,75.70
2022-11-06T18:41:54.283Z,76.07
2022-11-06T18:44:22.128Z,75.58
2022-11-06T18:46:50.026Z,76.19
2022-11-06T18:49:18.070Z,76.63
2022-11-06T18:51:58.994Z,76.78
2022-11-06T18:54:34.430Z,77.14
2022-11-06T18:57:07.218Z,77.17
2022-11-06T18:59:37.360Z,77.23
2022-11-06T19:02:09.303Z,77.72
2022-11-06T19:04:41.125Z,77.10
2022-11-06T19:07:12.481Z,77.96
2022-11-06T19:09:50.927Z,77.62
2022-11-06T19:12:20.289Z,77.90
2022-11-06T19:14:48.142Z,77.55
2022-11-06T19:17:16.066Z,77.47
2022-11-06T19:19:43.953Z,78.01
2022-11-06T19:22:11.685Z,78.53
2022-11-06T19:24:39.512Z,79.06
2022-11-06T19:27:08.704Z,78.17
2022-11-06T19:29:37.738Z,78.20
2022-11-06T19:32:05.726Z,77.70
2022-11-06T19:34:38.912Z,77.90
2022-11-06T19:37:08.087Z,78.44
2022-11-06T19:39:37.345Z,79.21
2022-11-06T19:42:05.398Z,79.16
2022-11-06T19:44:44.614Z,78.58
2022-11-06T19:47:16.091Z,79.18
2022-11-06T19:49:48.084Z,79.87
2022-11-06T19:52:41.451Z,79.57
2022-11-06T19:55:26.673Z,79.63
2022-11-06T19:57:52.437Z,80.51
2022-11-06T20:00:21.874Z,80.57
2022-11-06T20:02:49.896Z,80.75
2022-11-06T20:05:17.759Z,80.69
2022-11-06T20:07:45.495Z,80.53
2022-11-06T20:10:14.200Z,81.18
2022-11-06T20:12:42.297Z,81.42
2022-11-06T20:15:15.400Z,82.14
2022-11-06T20:17:46.680Z,81.91
2022-11-06T20:20:14.592Z,81.42
2022-11-06T20:22:42.723Z,81.05
2022-11-06T20:25:10.840Z,80.69
2022-11-06T20:27:38.718Z,81.11
2022-11-06T20:30:07.344Z,81.67
2022-11-06T20:32:35.432Z,81.48
2022-11-06T20:35:05.751Z,81.15
2022-11-06T20:37:34.313Z,81.27
2022-11-06T20:40:02.287Z,81.30
2022-11-06T20:42:30.382Z,81.35
2022-11-06T20:44:58.068Z,81.37
2022-11-06T20:47:26.067Z,81.69
2022-11-06T20:49:53.812Z,81.95
2022-11-06T20:52:22.935Z,81.43
2022-11-06T20:54:50.703Z,80.93
2022-11-06T20:57:18.454Z,80.83
2022-11-06T20:59:46.383Z,81.09
2022-11-06T21:02:16.878Z,80.55
2022-11-06T21:04:48.996Z,80.88
2022-11-06T21:07:18.862Z,81.18
2022-11-06T21:09:49.874Z,81.08
2022-11-06T21:12:18.768Z,81.36
2022-11-06T21:14:46.876Z,81.09
2022-11-06T21:17:14.711Z,80.69
2022-11-06T21:19:42.406Z,80.90
2022-11-06T21:22:10.195Z,80.87
2022-11-06T21:24:47.233Z,80.69
2022-11-06T21:27:28.732Z,81.32
2022-11-06T21:30:01.725Z,81.22
2022-11-06T21:32:31.884Z,81.64
2022-11-06T21:35:32.296Z,82.16
2022-11-06T21:38:14.484Z,82.00
2022-11-06T21:40:51.698Z,81.39
2022-11-06T21:43:21.221Z,81.48
2022-11-06T21:45:49.178Z,81.05
2022-11-06T21:48:32.842Z,80.77
2022-11-06T21:51:05.351Z,80.71
2022-11-06T21:53:50.686Z,80.78
2022-11-06T21:56:23.441Z,80.55
2022-11-06T21:58:56.092Z,81.11
2022-11-06T22:01:24.796Z,81.14
2022-11-06T22:03:52.729Z,81.56
2022-11-06T22:06:22.547Z,81.46
2022-11-06T22:08:50.779Z,81.37
2022-11-06T22:11:19.367Z,81.75
2022-11-06T22:13:47.722Z,81.56
2022-11-06T22:16:17.843Z,81.56
2022-11-06T22:18:45.679Z,81.94
2022-11-06T22:21:14.683Z,81.40
2022-11-06T22:23:42.548Z,80.77
2022-11-06T22:26:11.218Z,80.63
2022-11-06T22:28:39.094Z,80.52
2022-11-06T22:31:07.245Z,80.58
2022-11-06T22:33:36.558Z,81.17
2022-11-06T22:36:04.821Z,81.12
2022-11-06T22:38:33.058Z,81.17
2022-11-06T22:41:03.138Z,81.04
2022-11-06T22:43:31.909Z,81.00
2022-11-06T22:46:00.202Z,80.59
2022-11-06T22:48:28.263Z,81.30
2022-11-06T22:50:57.569Z,80.90
2022-11-06T22:53:25.315Z,80.65
2022-11-06T22:55:56.799Z,80.01
2022-11-06T22:58:24.626Z,79.77
2022-11-06T23:00:52.670Z,79.62
2022-11-06T23:03:21.005Z,80.47
2022-11-06T23:05:48.990Z,80.33
2022-11-06T23:08:18.096Z,80.43
2022-11-06T23:10:46.026Z,80.34
2022-11-06T23:13:14.306Z,80.26
2022-11-06T23:15:42.230Z,80.04
2022-11-06T23:18:09.920Z,80.45
2022-11-06T23:20:37.640Z,80.20
2022-11-06T23:23:05.654Z,79.66
2022-11-06T23:25:34.723Z,79.98
2022-11-06T23:28:02.648Z,80.03
2022-11-06T23:30:30.974Z,80.13
2022-11-06T23:32:58.765Z,80.08
2022-11-06T23:35:32.116Z,80.44
2022-11-06T23:38:00.219Z,80.15
2022-11-06T23:40:27.955Z,79.86
2022-11-06T23:42:57.617Z,80.12
2022-11-06T23:45:57.657Z,80.24
2022-11-06T23:48:25.430Z,79.73
2022-11-06T23:50:53.127Z,79.92
2022-11-06T23:53:20.957Z,80.38
2022-11-06T23:55:48.622Z,80.29
2022-11-06T23:58:17.658Z,79.78
